createdAt,value
2019-02-27T00:00:29.390Z,16.02
2019-02-27T00:02:57.957Z,14.63
2019-02-27T00:05:26.674Z,18.02
2019-02-27T00:07:55.237Z,14.20
2019-02-27T00:10:23.857Z,17.05
2019-02-27T00:12:52.587Z,15.08
2019-02-27T00:15:21.207Z,14.10
2019-02-27T00:17:51.535Z,15.70
2019-02-27T00:20:20.007Z,16.10
2019-02-27T00:22:50.850Z,15.95
2019-02-27T00:25:18.680Z,16.10
2019-02-27T00:27:49.251Z,16.73
2019-02-27T00:30:17.360Z,14.85
2019-02-27T00:32:45.846Z,16.40
2019-02-27T00:35:14.396Z,14.00
2019-02-27T00:37:42.865Z,14.53
2019-02-27T00:40:11.569Z,16.62
2019-02-27T00:42:40.178Z,14.85
2019-02-27T00:45:10.422Z,16.52
2019-02-27T00:47:38.903Z,16.52
2019-02-27T00:50:09.485Z,14.95
2019-02-27T00:52:38.034Z,16.60
2019-02-27T00:55:07.675Z,16.32
2019-02-27T00:57:36.142Z,15.78
2019-02-27T01:00:07.702Z,15.70
2019-02-27T01:02:36.200Z,15.30
2019-02-27T01:05:09.100Z,16.82
2019-02-27T01:07:36.584Z,15.70
2019-02-27T01:10:11.989Z,14.50
2019-02-27T01:12:38.449Z,16.23
2019-02-27T01:15:11.350Z,14.70
2019-02-27T01:17:39.902Z,15.32
2019-02-27T01:20:12.033Z,16.67
2019-02-27T01:22:40.632Z,15.83
2019-02-27T01:25:09.374Z,15.03
2019-02-27T01:27:38.620Z,15.60
2019-02-27T01:30:13.028Z,16.97
2019-02-27T01:32:41.569Z,14.55
2019-02-27T01:35:11.281Z,16.50
2019-02-27T01:37:39.769Z,16.65
2019-02-27T01:40:11.289Z,16.27
2019-02-27T01:42:39.826Z,15.53
2019-02-27T01:45:11.143Z,16.17
2019-02-27T01:47:39.625Z,15.53
2019-02-27T01:50:26.010Z,14.65
2019-02-27T01:52:54.603Z,15.45
2019-02-27T01:55:23.979Z,16.55
2019-02-27T01:57:52.511Z,15.32
2019-02-27T02:00:23.255Z,16.00
2019-02-27T02:02:51.263Z,15.25
2019-02-27T02:05:19.930Z,17.20
2019-02-27T02:07:48.843Z,15.55
2019-02-27T02:10:17.755Z,16.55
2019-02-27T02:12:49.569Z,16.20
2019-02-27T02:15:27.154Z,16.27
2019-02-27T02:18:22.907Z,16.15
2019-02-27T02:20:54.487Z,17.02
2019-02-27T02:23:47.947Z,14.28
2019-02-27T02:26:34.763Z,15.00
2019-02-27T02:29:24.177Z,15.10
2019-02-27T02:31:55.733Z,13.72
2019-02-27T02:34:45.141Z,17.00
2019-02-27T02:37:22.947Z,16.35
2019-02-27T02:40:06.246Z,14.60
2019-02-27T02:43:14.409Z,15.70
2019-02-27T02:45:46.038Z,15.13
2019-02-27T02:48:34.051Z,15.00
2019-02-27T02:51:29.105Z,15.75
2019-02-27T02:54:16.175Z,15.43
2019-02-27T02:57:00.134Z,15.40
2019-02-27T02:59:47.814Z,15.38
2019-02-27T03:02:23.793Z,15.38
2019-02-27T03:05:01.391Z,16.55
2019-02-27T03:07:45.663Z,14.03
2019-02-27T03:10:19.928Z,14.55
2019-02-27T03:12:57.483Z,13.65
2019-02-27T03:15:38.196Z,14.68
2019-02-27T03:18:29.452Z,14.15
2019-02-27T03:21:08.409Z,13.58
2019-02-27T03:23:56.845Z,12.50
2019-02-27T03:26:44.890Z,13.58
2019-02-27T03:29:30.985Z,12.15
2019-02-27T03:32:23.408Z,13.25
2019-02-27T03:34:57.622Z,12.73
2019-02-27T03:37:29.166Z,14.30
2019-02-27T03:40:12.641Z,13.03
2019-02-27T03:42:44.278Z,13.15
2019-02-27T03:45:15.908Z,12.05
2019-02-27T03:48:03.978Z,12.80
2019-02-27T03:50:49.622Z,12.07
2019-02-27T03:53:26.403Z,12.95
2019-02-27T03:56:10.063Z,13.22
2019-02-27T03:58:44.364Z,12.28
2019-02-27T04:01:41.551Z,12.37
2019-02-27T04:04:46.571Z,12.28
2019-02-27T04:07:18.218Z,12.73
2019-02-27T04:09:46.673Z,14.07
2019-02-27T04:12:16.588Z,14.05
2019-02-27T04:14:45.360Z,14.43
2019-02-27T04:17:13.864Z,13.53
2019-02-27T04:19:42.383Z,13.13
2019-02-27T04:22:10.922Z,12.78
2019-02-27T04:24:39.392Z,13.15
2019-02-27T04:27:07.849Z,14.33
2019-02-27T04:29:40.859Z,12.63
2019-02-27T04:32:09.650Z,13.18
2019-02-27T04:34:36.705Z,12.90
2019-02-27T04:37:05.175Z,11.88
2019-02-27T04:39:35.769Z,12.98
2019-02-27T04:42:03.863Z,12.25
2019-02-27T04:44:32.356Z,11.53
2019-02-27T04:47:00.822Z,14.40
2019-02-27T04:49:29.315Z,11.80
2019-02-27T04:51:57.785Z,11.88
2019-02-27T04:54:26.311Z,12.20
2019-02-27T04:56:55.106Z,12.30
2019-02-27T04:59:25.009Z,12.80
2019-02-27T05:01:53.492Z,11.68
2019-02-27T05:04:22.069Z,12.98
2019-02-27T05:06:50.575Z,13.45
2019-02-27T05:09:19.085Z,12.23
2019-02-27T05:11:48.301Z,12.13
2019-02-27T05:14:17.000Z,12.90
2019-02-27T05:16:47.324Z,12.10
2019-02-27T05:19:15.750Z,13.08
2019-02-27T05:21:44.224Z,12.73
2019-02-27T05:24:12.730Z,13.05
2019-02-27T05:26:41.220Z,12.35
2019-02-27T05:29:09.710Z,12.18
2019-02-27T05:31:38.177Z,12.68
2019-02-27T05:34:06.714Z,13.30
2019-02-27T05:36:35.213Z,12.88
2019-02-27T05:39:04.861Z,12.00
2019-02-27T05:41:33.787Z,11.75
2019-02-27T05:44:02.384Z,13.10
2019-02-27T05:46:30.921Z,12.05
2019-02-27T05:48:59.411Z,11.60
2019-02-27T05:51:27.868Z,14.00
2019-02-27T05:53:58.520Z,13.08
2019-02-27T05:56:26.531Z,12.82
2019-02-27T05:58:56.336Z,12.53
2019-02-27T06:01:27.312Z,14.25
2019-02-27T06:03:55.904Z,12.98
2019-02-27T06:06:24.469Z,13.35
2019-02-27T06:08:52.952Z,13.28
2019-02-27T06:11:21.422Z,13.80
2019-02-27T06:13:51.510Z,14.13
2019-02-27T06:16:19.970Z,11.80
2019-02-27T06:18:48.454Z,14.00
2019-02-27T06:21:16.939Z,13.08
2019-02-27T06:23:45.436Z,18.60
2019-02-27T06:26:13.965Z,14.10
2019-02-27T06:28:42.455Z,14.35
2019-02-27T06:31:10.939Z,13.65
2019-02-27T06:33:39.409Z,12.88
2019-02-27T06:36:08.558Z,13.10
2019-02-27T06:38:37.142Z,13.50
2019-02-27T06:41:05.713Z,13.68
2019-02-27T06:43:34.260Z,14.03
2019-02-27T06:46:02.821Z,14.87
2019-02-27T06:48:31.358Z,14.58
2019-02-27T06:51:00.959Z,13.83
2019-02-27T06:53:30.108Z,12.73
2019-02-27T06:56:02.914Z,12.88
2019-02-27T06:58:28.851Z,13.95
2019-02-27T07:00:57.341Z,15.15
2019-02-27T07:03:29.173Z,12.37
2019-02-27T07:05:56.011Z,13.70
2019-02-27T07:08:24.474Z,14.73
2019-02-27T07:10:57.352Z,13.93
2019-02-27T07:13:23.159Z,14.63
2019-02-27T07:15:51.708Z,11.78
2019-02-27T07:18:20.337Z,13.53
2019-02-27T07:20:48.818Z,13.50
2019-02-27T07:23:22.765Z,15.38
2019-02-27T07:25:47.495Z,12.65
2019-02-27T07:28:15.971Z,13.70
2019-02-27T07:30:44.441Z,13.80
2019-02-27T07:33:12.917Z,13.83
2019-02-27T07:35:41.413Z,12.80
2019-02-27T07:38:09.872Z,14.78
2019-02-27T07:40:42.740Z,12.90
2019-02-27T07:43:08.594Z,12.70
2019-02-27T07:45:37.080Z,13.22
2019-02-27T07:48:05.581Z,13.25
2019-02-27T07:50:34.057Z,15.30
2019-02-27T07:53:02.567Z,14.35
2019-02-27T07:55:31.126Z,14.68
2019-02-27T07:57:59.605Z,11.83
2019-02-27T08:00:28.173Z,13.70
2019-02-27T08:02:56.639Z,13.58
2019-02-27T08:05:28.276Z,12.40
2019-02-27T08:07:55.375Z,13.93
2019-02-27T08:10:24.920Z,13.80
2019-02-27T08:12:56.402Z,13.50
2019-02-27T08:15:25.286Z,13.38
2019-02-27T08:17:57.656Z,14.87
2019-02-27T08:20:24.466Z,13.70
2019-02-27T08:22:53.022Z,13.93
2019-02-27T08:25:21.563Z,13.87
2019-02-27T08:27:50.213Z,12.83
2019-02-27T08:30:23.667Z,13.57
2019-02-27T08:32:52.155Z,13.87
2019-02-27T08:35:20.619Z,13.63
2019-02-27T08:37:49.171Z,14.60
2019-02-27T08:40:17.635Z,14.73
2019-02-27T08:42:46.099Z,15.63
2019-02-27T08:45:19.725Z,15.70
2019-02-27T08:47:47.017Z,14.43
2019-02-27T08:50:17.210Z,16.97
2019-02-27T08:52:50.328Z,15.40
2019-02-27T08:55:21.799Z,14.97
2019-02-27T08:57:49.773Z,13.47
2019-02-27T09:00:26.850Z,14.70
2019-02-27T09:02:55.904Z,14.97
2019-02-27T09:05:24.543Z,15.37
2019-02-27T09:07:53.077Z,16.03
2019-02-27T09:10:25.903Z,16.23
2019-02-27T09:12:53.266Z,17.10
2019-02-27T09:15:21.769Z,16.10
2019-02-27T09:17:50.231Z,15.93
2019-02-27T09:20:20.656Z,15.90
2019-02-27T09:22:49.426Z,15.73
2019-02-27T09:25:18.030Z,15.50
2019-02-27T09:27:46.510Z,15.13
2019-02-27T09:30:28.989Z,14.80
2019-02-27T09:32:55.683Z,14.20
2019-02-27T09:35:24.198Z,14.50
2019-02-27T09:37:52.688Z,15.13
2019-02-27T09:40:23.160Z,15.33
2019-02-27T09:42:52.985Z,14.70
2019-02-27T09:45:34.597Z,14.30
2019-02-27T09:48:02.769Z,14.40
2019-02-27T09:50:38.856Z,13.80
2019-02-27T09:53:07.459Z,13.17
2019-02-27T09:55:36.124Z,14.07
2019-02-27T09:58:09.878Z,16.47
2019-02-27T10:00:47.638Z,14.00
2019-02-27T10:03:20.229Z,14.10
2019-02-27T10:05:46.541Z,14.50
2019-02-27T10:08:15.153Z,14.90
2019-02-27T10:10:45.827Z,14.10
2019-02-27T10:13:13.926Z,13.57
2019-02-27T10:15:42.457Z,13.27
2019-02-27T10:18:10.987Z,12.90
2019-02-27T10:20:39.524Z,13.57
2019-02-27T10:23:07.997Z,15.20
2019-02-27T10:25:36.535Z,13.10
2019-02-27T10:28:05.145Z,14.80
2019-02-27T10:30:33.952Z,14.20
2019-02-27T10:33:03.438Z,13.97
2019-02-27T10:35:34.557Z,14.43
2019-02-27T10:38:02.779Z,14.03
2019-02-27T10:40:31.310Z,14.77
2019-02-27T10:42:59.798Z,13.63
2019-02-27T10:45:28.330Z,14.40
2019-02-27T10:47:56.780Z,14.10
2019-02-27T10:50:25.325Z,15.87
2019-02-27T10:52:54.065Z,13.93
2019-02-27T10:55:24.138Z,15.27
2019-02-27T10:57:52.699Z,13.03
2019-02-27T11:00:33.015Z,14.30
2019-02-27T11:03:01.977Z,14.00
2019-02-27T11:05:33.121Z,14.07
2019-02-27T11:08:01.667Z,12.60
2019-02-27T11:10:30.465Z,12.33
2019-02-27T11:12:59.108Z,13.90
2019-02-27T11:15:27.617Z,13.97
2019-02-27T11:17:56.155Z,17.63
2019-02-27T11:20:24.854Z,14.33
2019-02-27T11:22:53.417Z,13.23
2019-02-27T11:25:27.707Z,12.40
2019-02-27T11:27:56.285Z,14.37
2019-02-27T11:30:30.483Z,12.10
2019-02-27T11:32:58.965Z,11.33
2019-02-27T11:35:27.441Z,11.97
2019-02-27T11:37:55.948Z,13.10
2019-02-27T11:40:25.602Z,13.00
2019-02-27T11:42:54.203Z,14.60
2019-02-27T11:45:24.565Z,11.93
2019-02-27T11:47:53.295Z,12.90
2019-02-27T11:50:21.767Z,10.60
2019-02-27T11:52:50.693Z,12.00
2019-02-27T11:55:20.608Z,10.13
2019-02-27T11:57:49.393Z,9.70
2019-02-27T12:00:33.891Z,8.57
2019-02-27T12:03:02.458Z,9.20
2019-02-27T12:05:34.054Z,9.80
2019-02-27T12:08:01.182Z,9.57
2019-02-27T12:10:31.670Z,8.80
2019-02-27T12:13:01.424Z,9.40
2019-02-27T12:15:30.299Z,10.73
2019-02-27T12:18:00.582Z,9.17
2019-02-27T12:20:29.099Z,9.43
2019-02-27T12:22:57.560Z,10.63
2019-02-27T12:25:29.111Z,10.37
2019-02-27T12:27:56.825Z,10.40
2019-02-27T12:30:27.203Z,10.50
2019-02-27T12:32:56.852Z,9.13
2019-02-27T12:35:28.164Z,9.93
2019-02-27T12:37:56.839Z,9.60
2019-02-27T12:40:25.436Z,8.40
2019-02-27T12:42:54.172Z,8.50
2019-02-27T12:45:25.784Z,9.07
2019-02-27T12:47:54.860Z,8.57
2019-02-27T12:50:27.022Z,7.63
2019-02-27T12:52:55.879Z,7.30
2019-02-27T12:55:24.984Z,6.57
2019-02-27T12:57:53.617Z,7.70
2019-02-27T13:00:27.888Z,7.53
2019-02-27T13:02:58.788Z,8.10
2019-02-27T13:05:27.531Z,7.53
2019-02-27T13:07:56.302Z,8.87
2019-02-27T13:10:26.186Z,6.97
2019-02-27T13:12:54.728Z,8.10
2019-02-27T13:15:25.707Z,8.83
2019-02-27T13:17:57.678Z,9.63
2019-02-27T13:20:28.620Z,8.43
2019-02-27T13:22:57.152Z,8.57
2019-02-27T13:25:25.757Z,8.77
2019-02-27T13:27:54.366Z,10.53
2019-02-27T13:30:26.810Z,8.67
2019-02-27T13:32:55.296Z,8.97
2019-02-27T13:35:23.975Z,8.77
2019-02-27T13:37:52.900Z,8.50
2019-02-27T13:40:34.950Z,9.77
2019-02-27T13:43:02.052Z,10.80
2019-02-27T13:45:31.836Z,9.47
2019-02-27T13:48:04.885Z,8.47
2019-02-27T13:50:30.640Z,9.33
2019-02-27T13:52:59.105Z,9.60
2019-02-27T13:55:27.687Z,8.90
2019-02-27T13:57:59.755Z,9.60
2019-02-27T14:00:29.759Z,10.50
2019-02-27T14:02:58.365Z,9.10
2019-02-27T14:05:29.282Z,8.37
2019-02-27T14:07:58.674Z,8.70
2019-02-27T14:10:32.587Z,8.93
2019-02-27T14:13:01.135Z,8.90
2019-02-27T14:15:31.367Z,8.90
2019-02-27T14:18:00.119Z,7.80
2019-02-27T14:20:29.220Z,8.90
2019-02-27T14:22:57.859Z,8.73
2019-02-27T14:25:33.512Z,9.80
2019-02-27T14:28:02.251Z,9.37
2019-02-27T14:30:42.527Z,8.93
2019-02-27T14:33:11.186Z,10.03
2019-02-27T14:35:39.729Z,9.57
2019-02-27T14:38:08.331Z,8.10
2019-02-27T14:40:40.079Z,9.63
2019-02-27T14:43:07.335Z,9.20
2019-02-27T14:45:39.440Z,9.80
2019-02-27T14:48:06.180Z,9.60
2019-02-27T14:50:34.910Z,8.13
2019-02-27T14:53:03.515Z,8.97
2019-02-27T14:55:32.050Z,8.10
2019-02-27T14:58:00.563Z,8.40
2019-02-27T15:00:33.631Z,7.83
2019-02-27T15:03:02.152Z,8.10
2019-02-27T15:05:30.819Z,7.87
2019-02-27T15:07:59.321Z,8.57
2019-02-27T15:10:27.852Z,8.47
2019-02-27T15:12:56.431Z,6.50
2019-02-27T15:15:29.955Z,8.63
2019-02-27T15:17:58.572Z,7.23
2019-02-27T15:20:28.385Z,7.67
2019-02-27T15:22:57.049Z,7.47
2019-02-27T15:25:27.400Z,7.60
2019-02-27T15:27:58.813Z,5.70
2019-02-27T15:30:31.087Z,6.57
2019-02-27T15:33:05.162Z,6.40
2019-02-27T15:35:32.731Z,6.20
2019-02-27T15:38:01.273Z,6.63
2019-02-27T15:40:30.766Z,5.80
2019-02-27T15:42:59.341Z,6.17
2019-02-27T15:45:37.092Z,6.50
2019-02-27T15:48:06.904Z,7.00
2019-02-27T15:50:36.569Z,6.70
2019-02-27T15:53:05.189Z,6.77
2019-02-27T15:55:35.212Z,7.40
2019-02-27T15:58:04.023Z,6.90
2019-02-27T16:00:34.163Z,6.50
2019-02-27T16:03:02.649Z,6.93
2019-02-27T16:05:31.749Z,7.83
2019-02-27T16:08:00.941Z,6.90
2019-02-27T16:10:29.688Z,6.60
2019-02-27T16:13:01.087Z,6.67
2019-02-27T16:15:28.409Z,7.20
2019-02-27T16:17:56.967Z,6.87
2019-02-27T16:20:29.147Z,6.60
2019-02-27T16:22:57.663Z,6.80
2019-02-27T16:25:29.552Z,6.87
2019-02-27T16:27:58.079Z,6.43
2019-02-27T16:30:32.334Z,6.83
2019-02-27T16:32:58.767Z,6.53
2019-02-27T16:35:27.610Z,6.93
2019-02-27T16:37:57.511Z,8.57
2019-02-27T16:40:28.683Z,6.83
2019-02-27T16:42:57.154Z,6.80
2019-02-27T16:45:33.903Z,7.07
2019-02-27T16:48:01.558Z,6.40
2019-02-27T16:50:30.076Z,6.20
2019-02-27T16:52:58.682Z,6.37
2019-02-27T16:55:28.035Z,6.90
2019-02-27T16:57:57.737Z,6.60
2019-02-27T17:00:31.304Z,7.37
2019-02-27T17:03:00.017Z,6.63
2019-02-27T17:05:28.578Z,7.30
2019-02-27T17:08:00.960Z,6.90
2019-02-27T17:10:32.087Z,6.70
2019-02-27T17:13:00.670Z,7.23
2019-02-27T17:15:34.539Z,7.00
2019-02-27T17:17:59.391Z,8.10
2019-02-27T17:20:28.692Z,6.83
2019-02-27T17:22:59.199Z,8.30
2019-02-27T17:25:29.994Z,8.50
2019-02-27T17:27:57.981Z,8.03
2019-02-27T17:30:36.675Z,8.50
2019-02-27T17:33:04.036Z,7.37
2019-02-27T17:35:33.697Z,8.90
2019-02-27T17:38:03.114Z,8.70
2019-02-27T17:40:36.272Z,9.97
2019-02-27T17:43:02.161Z,8.83
2019-02-27T17:45:30.691Z,10.33
2019-02-27T17:47:59.177Z,9.40
2019-02-27T17:50:30.889Z,8.60
2019-02-27T17:52:57.972Z,10.77
2019-02-27T17:55:26.586Z,10.03
2019-02-27T17:57:58.454Z,9.37
2019-02-27T18:00:43.186Z,10.37
2019-02-27T18:03:11.665Z,11.07
2019-02-27T18:05:40.171Z,10.20
2019-02-27T18:08:08.702Z,11.23
2019-02-27T18:10:38.264Z,8.90
2019-02-27T18:13:07.099Z,10.20
2019-02-27T18:15:35.733Z,10.63
2019-02-27T18:18:07.514Z,10.80
2019-02-27T18:20:34.972Z,11.60
2019-02-27T18:23:03.488Z,10.20
2019-02-27T18:25:32.045Z,11.73
2019-02-27T18:28:01.325Z,9.50
2019-02-27T18:30:29.859Z,10.17
2019-02-27T18:32:58.414Z,10.33
2019-02-27T18:35:29.587Z,9.00
2019-02-27T18:37:58.584Z,8.90
2019-02-27T18:40:27.045Z,9.43
2019-02-27T18:42:56.617Z,9.60
2019-02-27T18:45:29.335Z,8.80
2019-02-27T18:47:58.701Z,10.30
2019-02-27T18:50:27.471Z,10.17
2019-02-27T18:52:56.026Z,9.30
2019-02-27T18:55:29.274Z,9.53
2019-02-27T18:57:54.857Z,10.63
2019-02-27T19:00:28.371Z,11.10
2019-02-27T19:03:02.091Z,10.67
2019-02-27T19:05:30.554Z,10.70
2019-02-27T19:07:59.099Z,11.07
2019-02-27T19:10:27.673Z,11.40
2019-02-27T19:12:56.265Z,10.40
2019-02-27T19:15:26.462Z,11.17
2019-02-27T19:17:55.369Z,11.10
2019-02-27T19:20:41.971Z,11.47
2019-02-27T19:23:10.521Z,10.10
2019-02-27T19:25:39.049Z,10.43
2019-02-27T19:28:07.665Z,10.47
2019-02-27T19:30:38.791Z,10.40
2019-02-27T19:33:06.635Z,10.53
2019-02-27T19:35:35.277Z,9.97
2019-02-27T19:38:03.913Z,10.53
2019-02-27T19:40:32.412Z,9.87
2019-02-27T19:43:03.008Z,9.80
2019-02-27T19:45:31.691Z,10.00
2019-02-27T19:48:00.292Z,9.70
2019-02-27T19:50:29.138Z,10.27
2019-02-27T19:53:03.349Z,9.20
2019-02-27T19:55:27.961Z,10.97
2019-02-27T19:57:56.603Z,9.47
2019-02-27T20:00:33.829Z,9.17
2019-02-27T20:03:01.808Z,10.63
2019-02-27T20:05:30.726Z,9.33
2019-02-27T20:07:59.337Z,8.53
2019-02-27T20:10:30.160Z,8.30
2019-02-27T20:12:58.290Z,9.47
2019-02-27T20:15:27.454Z,9.40
2019-02-27T20:17:55.981Z,9.90
2019-02-27T20:20:25.212Z,10.43
2019-02-27T20:22:54.785Z,9.23
2019-02-27T20:25:26.004Z,9.80
2019-02-27T20:27:57.793Z,8.23
2019-02-27T20:30:25.075Z,8.60
2019-02-27T20:32:54.032Z,9.60
2019-02-27T20:35:33.942Z,10.70
2019-02-27T20:38:02.754Z,8.50
2019-02-27T20:40:34.207Z,9.17
2019-02-27T20:43:04.026Z,8.90
2019-02-27T20:45:32.576Z,9.50
2019-02-27T20:48:02.017Z,10.47
2019-02-27T20:50:36.768Z,9.20
2019-02-27T20:53:06.579Z,9.80
2019-02-27T20:55:35.047Z,11.03
2019-02-27T20:58:03.620Z,10.10
2019-02-27T21:00:35.975Z,9.00
2019-02-27T21:03:02.842Z,8.57
2019-02-27T21:05:31.634Z,9.57
2019-02-27T21:08:02.114Z,9.20
2019-02-27T21:10:32.555Z,9.73
2019-02-27T21:13:01.092Z,9.20
2019-02-27T21:15:32.335Z,10.67
2019-02-27T21:18:00.093Z,9.60
2019-02-27T21:20:28.765Z,10.80
2019-02-27T21:22:59.850Z,10.23
2019-02-27T21:25:27.533Z,9.33
2019-02-27T21:31:44.072Z,9.80
2019-02-27T21:34:12.544Z,10.70
2019-02-27T21:36:41.168Z,10.23
2019-02-27T21:39:15.652Z,10.23
2019-02-27T21:41:45.505Z,9.23
2019-02-27T21:44:25.248Z,10.77
2019-02-27T21:46:47.241Z,10.20
2019-02-27T21:49:17.010Z,8.97
2019-02-27T21:51:48.260Z,9.13
2019-02-27T21:54:15.839Z,9.50
2019-02-27T21:56:44.318Z,10.20
2019-02-27T21:59:12.845Z,10.43
2019-02-27T22:01:41.327Z,9.40
2019-02-27T22:04:10.801Z,8.93
2019-02-27T22:06:39.826Z,10.03
2019-02-27T22:09:10.256Z,10.30
2019-02-27T22:11:39.592Z,9.23
2019-02-27T22:14:08.105Z,10.13
2019-02-27T22:16:37.200Z,9.30
2019-02-27T22:19:06.115Z,10.47
2019-02-27T22:21:41.795Z,10.50
2019-02-27T22:24:10.520Z,10.27
2019-02-27T22:26:39.008Z,10.57
2019-02-27T22:29:07.483Z,10.60
2019-02-27T22:31:40.264Z,10.07
2019-02-27T22:34:06.203Z,8.80
2019-02-27T22:36:34.675Z,9.67
2019-02-27T22:39:04.017Z,10.60
2019-02-27T22:41:32.516Z,9.43
2019-02-27T22:44:00.971Z,9.00
2019-02-27T22:46:29.453Z,9.77
2019-02-27T22:48:59.957Z,8.90
2019-02-27T22:51:28.179Z,9.03
2019-02-27T22:53:59.464Z,9.67
2019-02-27T22:56:26.842Z,8.80
2019-02-27T22:58:55.320Z,9.60
2019-02-27T23:01:25.999Z,9.13
2019-02-27T23:03:57.793Z,9.40
2019-02-27T23:06:26.103Z,9.60
2019-02-27T23:08:55.163Z,8.83
2019-02-27T23:11:23.915Z,8.87
2019-02-27T23:13:52.468Z,8.37
2019-02-27T23:16:21.158Z,8.33
2019-02-27T23:18:49.713Z,9.80
2019-02-27T23:21:18.214Z,9.03
2019-02-27T23:23:46.865Z,10.77
2019-02-27T23:26:19.859Z,8.40
2019-02-27T23:28:45.571Z,9.50
2019-02-27T23:31:14.093Z,8.57
2019-02-27T23:33:42.605Z,9.90
2019-02-27T23:36:11.060Z,9.17
2019-02-27T23:38:39.596Z,9.23
2019-02-27T23:41:08.130Z,8.63
2019-02-27T23:43:36.613Z,8.97
2019-02-27T23:46:05.600Z,8.93
2019-02-27T23:48:36.073Z,10.80
2019-02-27T23:51:04.495Z,8.87
2019-02-27T23:53:33.031Z,9.30
2019-02-27T23:56:01.556Z,8.27
2019-02-27T23:58:30.426Z,9.50
